Time;durP1;ratioP1;P1;durP2;ratioP2;P2;SDS_P1;SDS_P2;PMS_P1;PMS_P2;Temp;Humidity;BMP_temperature;BMP_pressure;BME280_temperature;BME280_humidity;BME280_pressure;Samples;Min_cycle;Max_cycle;Signal;HPM_P1;HPM_P2
2022/10/04 00:01:07;;;;;;;0.98;0.60;;;11.60;99.90;;;;;;5062755;28;20044;-79
2022/10/04 00:04:01;;;;;;;1.30;0.70;;;11.70;99.90;;;;;;5063568;28;20105;-79
2022/10/04 00:06:28;;;;;;;0.82;0.60;;;11.90;99.90;;;;;;5050668;28;20041;-79
2022/10/04 00:08:59;;;;;;;;;;;11.90;99.90;;;;;;5059434;28;20048;-79
2022/10/04 00:11:29;;;;;;;0.80;0.50;;;11.60;99.90;;;;;;5063829;28;19920;-79
2022/10/04 00:14:04;;;;;;;0.73;0.70;;;11.90;99.90;;;;;;5066200;28;20534;-79
2022/10/04 00:16:39;;;;;;;0.80;0.50;;;11.60;99.90;;;;;;5055893;28;20051;-78
2022/10/04 00:19:14;;;;;;;0.60;0.60;;;11.60;99.90;;;;;;5076685;28;20044;-79
2022/10/04 00:21:55;;;;;;;1.02;0.63;;;11.50;99.90;;;;;;5069243;28;20032;-79
2022/10/04 00:24:30;;;;;;;1.42;0.77;;;11.90;99.90;;;;;;5064609;28;20067;-79
2022/10/04 00:27:22;;;;;;;1.58;0.75;;;11.50;99.90;;;;;;5048324;28;20098;-79
2022/10/04 00:30:14;;;;;;;1.63;0.70;;;11.50;99.90;;;;;;5039081;28;20040;-78
2022/10/04 00:32:40;;;;;;;0.70;0.50;;;11.80;99.90;;;;;;5065798;28;20044;-79
2022/10/04 00:35:25;;;;;;;0.90;0.60;;;11.80;99.90;;;;;;5067575;28;20054;-72
2022/10/04 00:38:13;;;;;;;0.80;0.63;;;11.60;99.90;;;;;;5063430;28;20044;-72
2022/10/04 00:40:42;;;;;;;;;;;11.80;99.90;;;;;;5062203;28;20044;-72
2022/10/04 00:43:36;;;;;;;0.88;0.60;;;11.50;99.90;;;;;;5067055;28;19966;-72
2022/10/04 00:46:06;;;;;;;1.55;0.60;;;11.70;99.90;;;;;;5061805;28;20109;-72
2022/10/04 00:48:37;;;;;;;1.88;0.82;;;11.50;99.90;;;;;;5066896;28;20028;-73
2022/10/04 00:51:37;;;;;;;1.27;0.73;;;11.80;99.90;;;;;;5067645;28;20129;-72
2022/10/04 00:54:11;;;;;;;1.15;0.70;;;11.70;99.90;;;;;;5067675;28;20040;-72
2022/10/04 00:56:43;;;;;;;0.90;0.70;;;11.50;99.90;;;;;;5068486;28;20044;-72
2022/10/04 00:59:34;;;;;;;1.30;0.90;;;11.40;99.90;;;;;;5072823;28;20645;-71
2022/10/04 01:02:45;;;;;;;0.80;0.70;;;11.70;99.90;;;;;;5055655;28;20060;-71
2022/10/04 01:05:50;;;;;;;1.05;0.75;;;11.40;99.90;;;;;;5009700;28;20037;-72
2022/10/04 01:08:26;;;;;;;2.05;0.80;;;11.50;99.90;;;;;;5060452;28;20047;-71
2022/10/04 01:10:57;;;;;;;1.53;0.87;;;11.70;99.90;;;;;;5064941;28;20495;-72
2022/10/04 01:13:46;;;;;;;1.25;0.70;;;11.70;99.90;;;;;;5062657;28;20570;-72
2022/10/04 01:16:23;;;;;;;0.88;0.77;;;11.60;99.90;;;;;;5063775;28;20130;-72
2022/10/04 01:18:49;;;;;;;1.67;0.88;;;11.70;99.90;;;;;;5079214;28;20391;-72
2022/10/04 01:21:18;;;;;;;1.92;1.00;;;11.70;99.90;;;;;;5055685;28;20043;-72
2022/10/04 01:23:48;;;;;;;1.85;1.00;;;11.40;99.90;;;;;;5074335;28;20032;-72
2022/10/04 01:26:29;;;;;;;0.60;0.60;;;11.70;99.90;;;;;;5070706;28;20123;-72
2022/10/04 01:28:59;;;;;;;1.20;0.95;;;11.50;99.90;;;;;;5069344;28;20043;-72
2022/10/04 01:31:30;;;;;;;1.20;0.90;;;11.40;99.90;;;;;;5048538;28;20131;-72
2022/10/04 01:33:56;;;;;;;2.65;1.10;;;11.30;99.90;;;;;;5064561;28;21117;-72
2022/10/04 01:36:22;;;;;;;;;;;11.30;99.90;;;;;;5079005;28;20548;-72
2022/10/04 01:38:49;;;;;;;1.48;1.10;;;11.70;99.90;;;;;;5058452;28;20003;-72
2022/10/04 01:41:20;;;;;;;2.70;1.10;;;11.40;99.90;;;;;;5074191;28;20569;-73
2022/10/04 01:43:50;;;;;;;1.58;1.00;;;11.60;99.90;;;;;;5072225;28;20043;-72
2022/10/04 01:46:22;;;;;;;0.88;0.80;;;11.30;99.90;;;;;;5064030;28;20502;-72
2022/10/04 01:48:47;;;;;;;1.95;1.17;;;11.30;99.90;;;;;;5075496;28;20532;-72
2022/10/04 01:51:17;;;;;;;2.28;1.20;;;11.70;99.90;;;;;;5072760;28;20056;-72
2022/10/04 01:54:08;;;;;;;2.00;1.17;;;11.70;99.90;;;;;;5069927;28;20044;-71
2022/10/04 01:56:43;;;;;;;1.23;0.90;;;11.40;99.90;;;;;;5057337;28;20058;-72
2022/10/04 01:59:17;;;;;;;1.58;1.20;;;11.60;99.90;;;;;;5059204;28;20403;-72
2022/10/04 02:01:43;;;;;;;1.60;1.30;;;11.30;99.90;;;;;;5060119;28;20075;-72
2022/10/04 02:04:12;;;;;;;1.73;1.10;;;11.30;99.90;;;;;;5056548;28;20320;-72
2022/10/04 02:06:40;;;;;;;1.65;1.20;;;11.30;99.90;;;;;;5056935;28;20044;-72
2022/10/04 02:09:17;;;;;;;1.38;1.00;;;11.60;99.90;;;;;;5065469;28;20040;-72
2022/10/04 02:11:47;;;;;;;2.58;1.20;;;11.60;99.90;;;;;;5074423;28;20163;-71
2022/10/04 02:14:16;;;;;;;1.88;1.15;;;11.20;99.90;;;;;;5040991;28;20059;-72
2022/10/04 02:16:46;;;;;;;1.33;1.10;;;11.20;99.90;;;;;;5070026;28;20093;-72
2022/10/04 02:19:14;;;;;;;1.45;1.00;;;11.20;99.90;;;;;;5053949;28;20036;-72
2022/10/04 02:21:40;;;;;;;1.70;1.13;;;11.10;99.90;;;;;;5059277;28;20049;-71
2022/10/04 02:24:08;;;;;;;1.73;1.25;;;11.40;99.90;;;;;;5057880;28;20039;-71
2022/10/04 02:26:33;;;;;;;1.67;1.05;;;11.30;99.90;;;;;;5040840;28;20059;-72
2022/10/04 02:28:59;;;;;;;1.77;1.10;;;11.40;99.90;;;;;;5039810;28;20036;-72
2022/10/04 02:34:12;;;;;;;1.67;1.20;;;11.00;99.90;;;;;;5052315;28;20052;-72
2022/10/04 02:36:38;;;;;;;2.25;1.05;;;11.40;99.90;;;;;;5063209;28;20403;-72
2022/10/04 02:39:27;;;;;;;;;;;11.10;99.90;;;;;;5084405;28;20040;-72
2022/10/04 02:42:22;;;;;;;2.30;1.20;;;11.30;99.90;;;;;;5048325;28;19924;-72
2022/10/04 02:44:59;;;;;;;2.03;0.90;;;11.30;99.90;;;;;;5054039;28;20494;-72
2022/10/04 02:47:29;;;;;;;2.33;1.02;;;10.90;99.90;;;;;;5055802;28;20044;-72
2022/10/04 02:50:00;;;;;;;1.88;1.10;;;11.20;99.90;;;;;;5057029;28;20537;-72
2022/10/04 02:52:37;;;;;;;1.42;1.00;;;11.20;99.90;;;;;;5072440;28;20127;-72
2022/10/04 02:55:02;;;;;;;1.83;1.10;;;10.80;99.90;;;;;;5057013;28;20392;-72
2022/10/04 02:57:31;;;;;;;1.50;0.88;;;10.90;99.90;;;;;;5072620;28;20048;-72
2022/10/04 03:00:17;;;;;;;1.48;1.10;;;10.80;99.90;;;;;;5056782;28;20416;-72
2022/10/04 03:03:20;;;;;;;2.40;2.17;;;10.80;99.90;;;;;;5071964;28;20048;-72
2022/10/04 03:06:08;;;;;;;1.70;1.20;;;10.90;99.90;;;;;;5038052;28;20063;-72
2022/10/04 03:08:51;;;;;;;1.40;1.10;;;10.80;99.90;;;;;;5095763;28;20028;-72
2022/10/04 03:11:21;;;;;;;2.05;0.88;;;11.00;99.90;;;;;;5077331;28;20492;-72
2022/10/04 03:13:51;;;;;;;1.73;1.02;;;11.20;99.90;;;;;;5075497;28;20220;-72
2022/10/04 03:16:18;;;;;;;0.98;0.88;;;10.80;99.90;;;;;;5058902;28;20177;-72
2022/10/04 03:18:46;;;;;;;1.33;0.85;;;11.20;99.90;;;;;;5054405;28;20036;-72
2022/10/04 03:21:15;;;;;;;1.17;0.93;;;10.90;99.90;;;;;;5073196;28;20094;-72
2022/10/04 03:23:42;;;;;;;1.42;1.10;;;11.10;99.90;;;;;;5057019;28;20037;-72
2022/10/04 03:26:23;;;;;;;1.27;0.90;;;11.20;99.90;;;;;;5056668;28;20056;-72
2022/10/04 03:28:49;;;;;;;1.80;1.10;;;10.90;99.90;;;;;;5071807;28;20387;-72
2022/10/04 03:31:15;;;;;;;1.33;1.17;;;11.20;99.90;;;;;;5053463;28;20060;-72
2022/10/04 03:33:43;;;;;;;1.60;1.20;;;10.80;99.90;;;;;;5057953;28;20636;-72
2022/10/04 03:36:13;;;;;;;1.67;0.93;;;10.80;99.90;;;;;;5074156;28;20443;-72
2022/10/04 03:38:39;;;;;;;1.55;1.10;;;11.10;99.90;;;;;;5041392;28;20094;-72
2022/10/04 03:41:05;;;;;;;1.67;1.00;;;10.70;99.90;;;;;;5057948;28;20516;-72
2022/10/04 03:43:36;;;;;;;1.55;1.08;;;11.10;99.90;;;;;;5055361;28;20044;-72
2022/10/04 03:46:06;;;;;;;1.73;1.10;;;11.00;99.90;;;;;;5071834;28;20050;-72
2022/10/04 03:48:40;;;;;;;1.73;1.08;;;11.00;99.90;;;;;;5058891;28;20159;-72
2022/10/04 03:51:10;;;;;;;1.00;0.90;;;10.60;99.90;;;;;;5069056;28;20055;-72
2022/10/04 03:53:46;;;;;;;1.23;1.10;;;10.70;99.90;;;;;;5073794;28;20488;-72
2022/10/04 03:56:33;;;;;;;1.43;1.00;;;10.90;99.90;;;;;;5073561;28;20055;-72
2022/10/04 03:59:02;;;;;;;1.85;1.10;;;11.00;99.90;;;;;;5055926;28;20299;-72
2022/10/04 04:01:49;;;;;;;1.65;0.90;;;10.70;99.90;;;;;;5055079;28;20051;-72
2022/10/04 04:04:49;;;;;;;1.63;1.10;;;11.00;99.90;;;;;;5038530;28;20033;-72
2022/10/04 04:07:31;;;;;;;1.88;0.90;;;10.90;99.90;;;;;;5059173;28;20044;-72
2022/10/04 04:09:58;;;;;;;1.40;1.00;;;10.90;99.90;;;;;;5062006;28;20039;-71
2022/10/04 04:12:41;;;;;;;;;;;11.00;99.90;;;;;;5089884;28;20044;-72
2022/10/04 04:15:12;;;;;;;2.47;1.05;;;10.90;99.90;;;;;;5060539;28;20346;-72
2022/10/04 04:17:44;;;;;;;1.75;1.10;;;10.60;99.90;;;;;;5074171;28;20544;-73
2022/10/04 04:20:22;;;;;;;1.70;0.90;;;10.70;99.90;;;;;;5073069;28;20052;-72
2022/10/04 04:22:57;;;;;;;4.45;1.00;;;10.50;99.90;;;;;;5072056;28;20085;-72
2022/10/04 04:25:24;;;;;;;1.77;1.00;;;10.90;99.90;;;;;;5052859;28;20471;-72
2022/10/04 04:27:58;;;;;;;1.55;1.10;;;10.50;99.90;;;;;;5069732;28;20075;-72
2022/10/04 04:30:24;;;;;;;2.03;1.13;;;10.90;99.90;;;;;;5057773;28;20083;-71
2022/10/04 04:32:55;;;;;;;1.10;1.00;;;10.50;99.90;;;;;;5066324;28;20495;-71
2022/10/04 04:35:31;;;;;;;2.15;1.05;;;10.50;99.90;;;;;;5069192;28;20045;-72
2022/10/04 04:38:11;;;;;;;2.30;1.33;;;10.50;99.90;;;;;;5057494;28;20032;-71
2022/10/04 04:40:37;;;;;;;1.92;1.40;;;10.40;99.90;;;;;;5069965;28;20055;-71
2022/10/04 04:43:03;;;;;;;2.35;1.10;;;10.40;99.90;;;;;;5072947;28;20411;-71
2022/10/04 04:45:30;;;;;;;1.25;1.10;;;10.40;99.90;;;;;;5072131;28;20086;-71
2022/10/04 04:47:58;;;;;;;1.83;1.40;;;10.80;99.90;;;;;;5073819;28;20127;-71
2022/10/04 04:50:28;;;;;;;1.98;1.20;;;10.40;99.90;;;;;;5049593;28;20048;-71
2022/10/04 04:53:08;;;;;;;2.80;1.50;;;10.50;99.90;;;;;;5062020;28;20115;-71
2022/10/04 04:55:47;;;;;;;2.08;1.17;;;10.80;99.90;;;;;;5059518;28;20101;-70
2022/10/04 04:58:20;;;;;;;1.55;1.15;;;10.60;99.90;;;;;;5062064;28;20411;-72
2022/10/04 05:00:59;;;;;;;1.70;1.10;;;10.30;99.90;;;;;;5061195;28;20216;-72
2022/10/04 05:03:25;;;;;;;1.77;1.20;;;10.30;99.90;;;;;;5061969;28;20036;-72
2022/10/04 05:05:53;;;;;;;1.85;1.20;;;10.60;99.90;;;;;;5060017;28;20043;-72
2022/10/04 05:08:23;;;;;;;2.40;1.30;;;10.70;99.90;;;;;;5056971;28;20479;-72
2022/10/04 05:11:08;;;;;;;3.35;1.45;;;10.40;99.90;;;;;;5060826;28;20499;-72
2022/10/04 05:13:39;;;;;;;1.58;1.20;;;10.60;99.90;;;;;;5063113;28;20495;-72
2022/10/04 05:16:12;;;;;;;3.97;1.50;;;10.70;99.90;;;;;;5039018;28;20452;-72
2022/10/04 05:18:38;;;;;;;3.95;1.50;;;10.20;99.90;;;;;;5070215;28;20119;-73
2022/10/04 05:21:17;;;;;;;2.00;1.40;;;10.60;99.90;;;;;;5035898;28;20459;-72
2022/10/04 05:23:43;;;;;;;1.83;1.38;;;10.50;99.90;;;;;;5040664;28;20032;-72
2022/10/04 05:26:11;;;;;;;1.65;1.35;;;10.40;99.90;;;;;;5043320;28;20032;-72
2022/10/04 05:28:38;;;;;;;1.98;1.25;;;10.50;99.90;;;;;;5059734;28;20396;-73
2022/10/04 05:31:26;;;;;;;2.63;1.50;;;10.10;99.90;;;;;;5036560;28;20097;-78
2022/10/04 05:33:56;;;;;;;1.90;1.40;;;10.30;99.90;;;;;;5056337;28;20494;-78
2022/10/04 05:36:33;;;;;;;2.30;1.40;;;10.50;99.90;;;;;;5048345;28;20044;-78
2022/10/04 05:39:18;;;;;;;1.48;1.20;;;10.40;99.90;;;;;;5054188;28;20044;-79
2022/10/04 05:41:55;;;;;;;1.65;1.20;;;10.20;99.90;;;;;;5053239;28;20059;-80
2022/10/04 05:44:34;;;;;;;2.53;1.30;;;10.00;99.90;;;;;;5058901;28;20376;-79
2022/10/04 05:47:02;;;;;;;2.28;1.60;;;10.10;99.90;;;;;;5051358;28;20467;-79
2022/10/04 05:49:33;;;;;;;2.28;1.55;;;10.40;99.90;;;;;;5052593;28;20500;-79
2022/10/04 05:52:02;;;;;;;3.25;1.83;;;9.90;99.90;;;;;;5036098;28;20438;-79
2022/10/04 05:54:34;;;;;;;2.20;1.70;;;10.40;99.90;;;;;;5056469;28;20046;-79
2022/10/04 05:57:24;;;;;;;1.88;1.48;;;10.30;99.90;;;;;;5068051;28;20047;-78
2022/10/04 06:00:14;;;;;;;3.42;1.95;;;10.30;99.90;;;;;;5072314;28;20487;-79
2022/10/04 06:03:12;;;;;;;3.85;2.25;;;10.10;99.90;;;;;;5060576;28;20055;-79
2022/10/04 06:06:00;;;;;;;;;;;10.30;99.90;;;;;;5053845;28;20037;-79
2022/10/04 06:09:15;;;;;;;3.03;2.00;;;10.30;99.90;;;;;;5035999;28;19927;-79
2022/10/04 06:12:26;;;;;;;3.28;2.30;;;9.90;99.90;;;;;;5013713;28;20151;-79
2022/10/04 06:14:57;;;;;;;4.03;2.63;;;10.40;99.90;;;;;;5027472;28;20044;-79
2022/10/04 06:17:37;;;;;;;3.55;2.20;;;9.90;99.90;;;;;;5049899;28;20107;-78
2022/10/04 06:20:12;;;;;;;3.65;2.25;;;9.90;99.90;;;;;;5088104;28;20037;-79
2022/10/04 06:22:46;;;;;;;4.60;2.70;;;10.40;99.90;;;;;;5075783;28;20496;-79
2022/10/04 06:25:26;;;;;;;4.53;2.95;;;9.90;99.90;;;;;;5065318;28;20044;-79
2022/10/04 06:28:16;;;;;;;3.50;2.70;;;10.10;99.90;;;;;;5069762;28;20037;-78
2022/10/04 06:31:08;;;;;;;2.92;2.00;;;9.90;99.90;;;;;;5062755;28;20065;-79
2022/10/04 06:33:45;;;;;;;3.35;2.90;;;10.40;99.90;;;;;;5036972;28;20080;-79
2022/10/04 06:36:40;;;;;;;5.22;2.53;;;10.00;99.90;;;;;;5044231;28;20104;-79
2022/10/04 06:39:12;;;;;;;2.97;2.40;;;10.10;99.90;;;;;;5045697;28;20075;-79
2022/10/04 06:42:01;;;;;;;3.13;2.20;;;10.50;99.90;;;;;;5058596;28;20047;-79
2022/10/04 06:44:48;;;;;;;4.50;2.75;;;10.60;99.90;;;;;;5078710;28;20119;-79
2022/10/04 06:47:31;;;;;;;2.58;2.17;;;10.20;99.90;;;;;;5054840;28;20040;-79
2022/10/04 06:50:06;;;;;;;3.00;2.10;;;10.40;99.90;;;;;;5068216;28;20398;-80
2022/10/04 06:52:57;;;;;;;3.08;2.40;;;10.40;99.90;;;;;;5065101;28;20048;-79
2022/10/04 06:55:32;;;;;;;3.67;2.45;;;10.80;99.90;;;;;;5077032;28;20054;-80
2022/10/04 06:58:10;;;;;;;3.10;2.15;;;10.50;99.90;;;;;;5045140;28;20123;-80
2022/10/04 07:00:48;;;;;;;3.17;2.00;;;10.80;99.90;;;;;;5062137;28;20059;-79
2022/10/04 07:03:25;;;;;;;3.80;2.33;;;10.60;99.90;;;;;;5081527;28;20029;-78
2022/10/04 07:06:02;;;;;;;3.25;2.25;;;11.10;99.90;;;;;;5088074;28;20024;-78
2022/10/04 07:08:47;;;;;;;3.75;2.70;;;11.30;99.90;;;;;;5075378;28;20078;-78
2022/10/04 07:11:17;;;;;;;5.35;2.70;;;11.00;99.90;;;;;;5061635;28;20040;-80
2022/10/04 07:13:43;;;;;;;3.80;2.30;;;11.10;99.90;;;;;;5074459;28;20040;-80
2022/10/04 07:16:29;;;;;;;2.92;2.13;;;11.20;99.90;;;;;;5058153;28;20047;-80
2022/10/04 07:18:58;;;;;;;4.13;2.10;;;11.40;99.90;;;;;;5041805;28;20045;-79
2022/10/04 07:21:33;;;;;;;4.55;2.80;;;12.00;99.90;;;;;;5057521;28;20040;-79
2022/10/04 07:24:02;;;;;;;4.57;2.80;;;11.70;99.90;;;;;;5063776;28;20050;-79
2022/10/04 07:26:33;;;;;;;4.80;3.20;;;11.90;99.90;;;;;;5059989;28;20426;-79
2022/10/04 07:29:20;;;;;;;5.20;2.88;;;11.80;99.90;;;;;;5056004;28;20040;-79
2022/10/04 07:31:52;;;;;;;3.17;2.50;;;12.10;99.90;;;;;;5058551;28;20037;-79
2022/10/04 07:34:25;;;;;;;3.75;2.60;;;11.80;99.90;;;;;;5062016;28;20492;-79
2022/10/04 07:36:55;;;;;;;2.88;2.10;;;11.80;99.90;;;;;;5065941;28;20086;-79
2022/10/04 07:39:29;;;;;;;3.47;2.50;;;12.20;99.90;;;;;;5057651;28;20055;-79
2022/10/04 07:42:00;;;;;;;3.67;2.70;;;12.40;99.90;;;;;;5058356;28;20188;-79
2022/10/04 07:44:40;;;;;;;4.25;2.70;;;12.80;99.90;;;;;;5070908;28;20036;-80
2022/10/04 07:47:19;;;;;;;3.97;3.20;;;13.10;99.90;;;;;;5055360;28;20407;-79
2022/10/04 07:49:49;;;;;;;4.40;2.95;;;12.90;99.90;;;;;;5043598;28;20044;-79
2022/10/04 07:52:20;;;;;;;3.60;3.28;;;12.90;99.90;;;;;;5055728;28;20045;-79
2022/10/04 07:55:21;;;;;;;4.82;2.95;;;12.90;99.90;;;;;;5056938;28;20490;-79
2022/10/04 07:58:06;;;;;;;4.35;3.22;;;13.10;99.90;;;;;;5042748;28;20059;-79
2022/10/04 08:01:03;;;;;;;3.63;2.60;;;13.00;99.90;;;;;;5079249;28;20040;-79
2022/10/04 08:04:13;;;;;;;4.07;2.30;;;12.80;99.90;;;;;;5043588;28;20131;-78
2022/10/04 08:06:55;;;;;;;4.72;3.05;;;12.80;99.90;;;;;;4977204;28;20681;-78
2022/10/04 08:09:42;;;;;;;4.70;3.53;;;12.80;99.90;;;;;;4946171;28;20074;-79
2022/10/04 08:12:16;;;;;;;4.40;3.30;;;12.90;99.90;;;;;;5018652;28;20048;-79
2022/10/04 08:14:59;;;;;;;3.60;3.00;;;12.60;99.90;;;;;;5057996;28;20771;-79
2022/10/04 08:17:45;;;;;;;3.78;2.97;;;12.60;99.90;;;;;;5062334;28;20094;-79
2022/10/04 08:20:29;;;;;;;5.88;3.40;;;12.60;99.90;;;;;;5057674;28;20056;-79
2022/10/04 08:23:19;;;;;;;4.07;2.92;;;12.70;99.90;;;;;;5059720;28;20040;-79
2022/10/04 08:26:14;;;;;;;3.38;2.72;;;12.80;99.90;;;;;;5043631;28;20036;-79
2022/10/04 08:32:22;;;;;;;3.60;2.80;;;13.00;99.90;;;;;;5059680;28;20119;-78
2022/10/04 08:35:26;;;;;;;4.15;3.03;;;13.10;99.90;;;;;;5055507;28;20048;-79
2022/10/04 08:38:23;;;;;;;4.03;2.85;;;13.10;99.90;;;;;;5051678;28;20102;-79
2022/10/04 08:41:23;;;;;;;3.35;2.60;;;13.30;99.90;;;;;;5035484;28;20067;-79
2022/10/04 08:44:26;;;;;;;5.20;3.80;;;13.50;99.90;;;;;;5051791;28;20128;-79
2022/10/04 08:47:36;;;;;;;4.68;3.20;;;13.50;99.90;;;;;;5050997;28;20036;-78
2022/10/04 08:50:12;;;;;;;3.95;3.25;;;13.60;99.90;;;;;;5071763;28;20032;-78
2022/10/04 08:52:51;;;;;;;4.65;3.58;;;13.50;99.90;;;;;;5054173;28;20070;-79
2022/10/04 08:55:33;;;;;;;3.90;3.25;;;13.60;99.90;;;;;;5070504;28;20347;-79
2022/10/04 08:58:12;;;;;;;4.63;3.33;;;13.80;99.90;;;;;;5056819;28;20392;-80
2022/10/04 09:01:06;;;;;;;6.10;3.50;;;13.80;99.90;;;;;;5060506;28;20044;-79
2022/10/04 09:03:41;;;;;;;3.78;3.17;;;13.80;99.90;;;;;;5056477;28;20043;-79
2022/10/04 09:06:27;;;;;;;6.20;3.35;;;13.80;99.90;;;;;;5056793;28;20488;-79
2022/10/04 09:09:19;;;;;;;5.07;2.90;;;14.00;99.90;;;;;;5056061;28;20412;-79
2022/10/04 09:11:59;;;;;;;4.75;2.70;;;14.00;99.90;;;;;;5047759;28;20079;-79
2022/10/04 09:14:37;;;;;;;5.45;2.90;;;14.10;99.90;;;;;;5039775;28;20046;-80
2022/10/04 09:17:47;;;;;;;4.30;2.72;;;14.00;99.90;;;;;;5070945;28;20576;-80
2022/10/04 09:20:21;;;;;;;4.88;3.47;;;14.00;99.90;;;;;;5050166;28;20131;-79
2022/10/04 09:22:56;;;;;;;5.18;3.03;;;14.10;99.90;;;;;;5065850;28;20365;-79
2022/10/04 09:25:47;;;;;;;5.18;2.83;;;14.10;99.90;;;;;;5055773;28;20048;-79
2022/10/04 09:28:55;;;;;;;4.80;3.00;;;14.10;99.90;;;;;;5044230;28;20122;-80
2022/10/04 09:31:28;;;;;;;5.00;2.90;;;14.20;99.90;;;;;;5049269;28;20087;-81
2022/10/04 09:34:05;;;;;;;5.05;2.50;;;14.20;99.90;;;;;;5054086;28;20086;-79
2022/10/04 09:37:02;;;;;;;4.32;2.75;;;14.40;99.90;;;;;;5048727;28;20051;-80
2022/10/04 09:39:42;;;;;;;5.30;3.13;;;14.40;99.90;;;;;;5050905;28;20049;-79
2022/10/04 09:42:35;;;;;;;5.18;3.20;;;14.40;99.90;;;;;;5057120;28;20052;-80
2022/10/04 09:45:48;;;;;;;4.72;3.08;;;14.50;99.90;;;;;;5056626;28;20051;-79
2022/10/04 09:48:27;;;;;;;5.53;3.22;;;14.50;99.90;;;;;;4997738;28;20108;-79
2022/10/04 09:51:13;;;;;;;4.68;2.60;;;14.60;99.90;;;;;;5052519;28;20040;-79
2022/10/04 09:53:57;;;;;;;4.32;2.60;;;14.60;99.90;;;;;;5073824;28;20194;-81
2022/10/04 09:57:00;;;;;;;7.10;2.78;;;14.70;99.90;;;;;;5056426;28;20040;-80
2022/10/04 09:59:25;;;;;;;4.97;2.47;;;14.70;99.90;;;;;;5013628;28;20082;-79
2022/10/04 10:02:12;;;;;;;6.30;3.00;;;14.80;99.90;;;;;;5059008;28;20132;-73
2022/10/04 10:05:14;;;;;;;6.03;2.80;;;14.80;99.90;;;;;;5035661;28;20044;-72
2022/10/04 10:08:01;;;;;;;4.35;2.40;;;14.90;99.90;;;;;;5052007;28;20039;-72
2022/10/04 10:14:02;;;;;;;7.60;3.97;;;15.00;99.90;;;;;;5059056;28;20480;-80
2022/10/04 10:16:46;;;;;;;6.82;4.30;;;15.10;99.90;;;;;;5056292;28;20049;-71
2022/10/04 10:19:52;;;;;;;4.60;3.45;;;15.10;99.90;;;;;;5043118;28;20043;-71
2022/10/04 10:23:00;;;;;;;5.13;3.40;;;15.30;99.90;;;;;;5015381;28;20059;-71
2022/10/04 10:25:28;;;;;;;4.55;3.70;;;15.40;99.90;;;;;;5058026;28;20097;-72
2022/10/04 10:28:10;;;;;;;4.78;3.30;;;15.40;99.90;;;;;;5062542;28;20036;-72
2022/10/04 10:31:20;;;;;;;6.93;3.55;;;15.60;99.90;;;;;;5041290;28;20055;-71
2022/10/04 10:34:01;;;;;;;4.57;3.35;;;15.80;99.90;;;;;;5065445;28;20052;-71
2022/10/04 10:37:08;;;;;;;4.20;2.78;;;16.00;99.90;;;;;;5070765;28;20177;-71
2022/10/04 10:39:46;;;;;;;4.10;2.63;;;16.30;99.90;;;;;;5051202;28;20098;-71
2022/10/04 10:42:30;;;;;;;6.00;2.60;;;16.50;99.90;;;;;;5065727;28;20101;-71
2022/10/04 10:45:15;;;;;;;3.95;2.83;;;16.80;99.90;;;;;;5048233;28;20040;-73
2022/10/04 10:47:49;;;;;;;6.03;2.20;;;16.80;99.90;;;;;;5054726;28;20059;-72
2022/10/04 10:50:33;;;;;;;3.15;2.00;;;17.00;99.90;;;;;;5077215;28;20153;-73
2022/10/04 10:53:30;;;;;;;3.65;2.20;;;17.10;99.90;;;;;;5085715;28;20452;-72
2022/10/04 10:56:26;;;;;;;3.33;2.20;;;17.20;99.90;;;;;;5068326;28;20039;-71
2022/10/04 10:59:46;;;;;;;3.30;2.08;;;17.20;99.90;;;;;;5051249;28;20046;-72
2022/10/04 11:02:36;;;;;;;4.25;1.95;;;17.40;99.90;;;;;;5016928;28;20536;-72
2022/10/04 11:05:40;;;;;;;4.72;2.25;;;17.60;99.90;;;;;;5054122;28;20036;-72
2022/10/04 11:08:28;;;;;;;3.00;1.90;;;17.50;99.90;;;;;;5058341;28;20467;-71
2022/10/04 11:11:12;;;;;;;4.20;2.05;;;17.60;99.90;;;;;;5082091;28;20035;-72
2022/10/04 11:14:10;;;;;;;2.40;1.65;;;17.80;99.90;;;;;;5054078;28;20044;-71
2022/10/04 11:17:12;;;;;;;2.90;1.73;;;17.90;99.90;;;;;;5074217;28;20040;-72
2022/10/04 11:20:03;;;;;;;2.53;1.60;;;17.90;99.90;;;;;;5075052;28;20201;-72
2022/10/04 11:22:35;;;;;;;3.17;1.98;;;18.10;99.90;;;;;;5075478;28;20043;-72
2022/10/04 11:25:06;;;;;;;5.25;2.10;;;18.10;99.90;;;;;;5061188;28;20041;-73
2022/10/04 11:27:54;;;;;;;3.70;1.80;;;18.20;99.90;;;;;;5054290;28;20440;-72
2022/10/04 11:30:25;;;;;;;3.22;1.80;;;18.30;99.90;;;;;;5052233;28;20043;-73
2022/10/04 11:33:10;;;;;;;3.63;2.13;;;18.40;99.90;;;;;;5067984;28;20070;-72
2022/10/04 11:36:02;;;;;;;3.70;1.70;;;18.30;99.90;;;;;;5067358;28;20048;-72
2022/10/04 11:38:49;;;;;;;2.63;1.83;;;18.40;99.90;;;;;;5069803;28;20127;-71
2022/10/04 11:41:21;;;;;;;2.60;1.63;;;18.40;99.90;;;;;;5062425;28;20060;-71
2022/10/04 11:44:14;;;;;;;2.88;1.77;;;18.60;99.90;;;;;;5046651;28;20047;-72
2022/10/04 11:47:02;;;;;;;3.60;1.60;;;18.70;99.90;;;;;;5072788;28;20040;-72
2022/10/04 11:49:55;;;;;;;3.72;1.80;;;18.70;99.90;;;;;;5070180;28;20039;-73
2022/10/04 11:52:39;;;;;;;3.30;1.58;;;18.40;99.90;;;;;;5067433;28;20089;-73
2022/10/04 11:55:43;;;;;;;2.70;1.73;;;18.60;99.90;;;;;;5038491;28;20056;-73
2022/10/04 11:58:44;;;;;;;2.08;1.40;;;18.70;99.90;;;;;;5037419;28;20048;-74
2022/10/04 12:01:29;;;;;;;2.35;1.73;;;18.80;99.90;;;;;;5019120;28;20091;-74
2022/10/04 12:04:29;;;;;;;2.90;1.60;;;18.70;99.90;;;;;;5054082;28;20121;-73
2022/10/04 12:07:30;;;;;;;3.53;1.83;;;18.80;99.90;;;;;;5054650;28;20103;-74
2022/10/04 12:10:02;;;;;;;2.80;1.60;;;18.70;99.90;;;;;;5037750;28;20052;-73
2022/10/04 12:12:46;;;;;;;3.05;1.60;;;19.00;99.90;;;;;;5037936;28;20105;-73
2022/10/04 12:15:17;;;;;;;2.30;1.70;;;19.10;99.90;;;;;;5054450;28;20519;-74
2022/10/04 12:17:58;;;;;;;2.97;1.90;;;19.20;99.90;;;;;;5036706;28;20134;-73
2022/10/04 12:20:39;;;;;;;2.88;1.85;;;19.20;99.90;;;;;;5054451;28;20055;-73
2022/10/04 12:23:47;;;;;;;2.65;1.77;;;19.20;99.90;;;;;;5054154;28;20048;-73
2022/10/04 12:26:49;;;;;;;4.38;1.90;;;19.20;99.90;;;;;;5038077;28;20374;-73
2022/10/04 12:29:41;;;;;;;3.25;1.90;;;19.30;99.90;;;;;;5054255;28;20090;-74
2022/10/04 12:32:16;;;;;;;3.13;1.80;;;19.60;99.90;;;;;;5031323;28;20135;-73
2022/10/04 12:34:57;;;;;;;3.72;1.60;;;19.60;99.90;;;;;;5052751;28;20051;-73
2022/10/04 12:37:34;;;;;;;2.13;1.33;;;19.70;99.90;;;;;;5057587;28;20123;-73
2022/10/04 12:40:06;;;;;;;2.85;1.70;;;19.90;99.90;;;;;;5073749;28;20508;-73
2022/10/04 12:43:14;;;;;;;2.15;1.50;;;19.90;99.90;;;;;;5075352;28;20438;-73
2022/10/04 12:45:58;;;;;;;2.13;1.45;;;19.90;99.40;;;;;;5073965;28;20536;-73
2022/10/04 12:48:43;;;;;;;4.18;2.22;;;19.90;99.30;;;;;;5074957;28;20051;-74
2022/10/04 12:51:46;;;;;;;3.63;2.50;;;19.60;99.70;;;;;;5059034;28;20052;-73
2022/10/04 12:54:34;;;;;;;2.70;1.80;;;19.50;99.20;;;;;;5078747;28;20040;-73
2022/10/04 12:57:13;;;;;;;3.75;2.40;;;19.50;99.00;;;;;;5075582;28;20048;-73
2022/10/04 13:00:15;;;;;;;4.47;1.90;;;19.50;99.10;;;;;;5075262;28;20431;-73
2022/10/04 13:03:01;;;;;;;4.30;2.47;;;19.80;99.50;;;;;;5073916;28;20062;-73
2022/10/04 13:05:34;;;;;;;3.97;2.10;;;19.80;98.80;;;;;;5057231;28;20090;-73
2022/10/04 13:08:21;;;;;;;2.97;1.40;;;19.90;98.70;;;;;;5073255;28;20495;-73
2022/10/04 13:11:08;;;;;;;3.08;1.73;;;20.00;98.00;;;;;;5073275;28;20127;-72
2022/10/04 13:14:10;;;;;;;2.00;1.40;;;19.90;97.90;;;;;;5073337;28;20040;-73
2022/10/04 13:16:55;;;;;;;4.60;1.73;;;20.00;98.40;;;;;;5073295;28;20040;-73
2022/10/04 13:19:20;;;;;;;3.30;1.80;;;19.80;97.60;;;;;;5056553;28;20046;-74
2022/10/04 13:21:58;;;;;;;;;;;19.80;97.80;;;;;;5073995;28;20048;-74
2022/10/04 13:24:54;;;;;;;3.35;1.77;;;19.80;98.10;;;;;;5071862;28;19923;-73
2022/10/04 13:28:05;;;;;;;2.72;1.80;;;19.90;97.90;;;;;;5074676;28;20104;-73
2022/10/04 13:30:44;;;;;;;2.00;1.30;;;19.90;98.90;;;;;;5068296;28;20138;-73
2022/10/04 13:33:25;;;;;;;3.15;1.60;;;20.20;99.20;;;;;;5062300;28;20066;-73
2022/10/04 13:36:12;;;;;;;2.63;1.73;;;20.10;98.50;;;;;;5056760;28;20048;-74
2022/10/04 13:38:48;;;;;;;2.63;1.20;;;20.20;97.80;;;;;;5068043;28;20051;-73
2022/10/04 13:41:17;;;;;;;2.53;1.85;;;20.10;97.30;;;;;;5042446;28;20052;-73
2022/10/04 13:43:57;;;;;;;2.47;1.65;;;19.80;96.90;;;;;;5067192;28;20082;-73
2022/10/04 13:46:35;;;;;;;2.65;1.50;;;19.50;97.10;;;;;;5063486;28;20480;-82
2022/10/04 13:49:06;;;;;;;1.77;1.42;;;19.10;97.50;;;;;;5071912;28;20040;-80
2022/10/04 13:51:42;;;;;;;2.65;1.50;;;18.90;98.50;;;;;;5057449;28;20801;-80
2022/10/04 13:57:08;;;;;;;2.78;1.60;;;18.90;98.60;;;;;;5071940;28;20063;-82
2022/10/04 13:59:54;;;;;;;1.90;1.30;;;18.80;98.20;;;;;;5071959;28;20131;-80
2022/10/04 14:02:50;;;;;;;2.08;1.20;;;18.80;99.10;;;;;;5041886;28;20062;-80
2022/10/04 14:05:36;;;;;;;3.20;1.60;;;18.90;99.20;;;;;;5048120;28;20043;-80
2022/10/04 14:08:30;;;;;;;2.45;1.50;;;18.90;99.00;;;;;;5071946;28;20119;-81
2022/10/04 14:11:01;;;;;;;3.05;1.38;;;19.00;98.70;;;;;;5074593;28;20054;-78